sensor_id;sensor_type;location;lat;lon;timestamp;pressure;altitude;pressure_sealevel;temperature;humidity
73024;BME280;61199;47.526;8.538;2023-03-15T00:00:32;96091.13;;;4.65;83.30
73024;BME280;61199;47.526;8.538;2023-03-15T00:02:59;96098.66;;;4.80;83.10
73024;BME280;61199;47.526;8.538;2023-03-15T00:05:29;96095.41;;;4.89;82.12
73024;BME280;61199;47.526;8.538;2023-03-15T00:07:57;96112.22;;;4.96;81.42
73024;BME280;61199;47.526;8.538;2023-03-15T00:10:24;96108.28;;;4.91;82.53
73024;BME280;61199;47.526;8.538;2023-03-15T00:12:50;96110.09;;;4.65;83.26
73024;BME280;61199;47.526;8.538;2023-03-15T00:15:16;96110.25;;;4.87;82.15
73024;BME280;61199;47.526;8.538;2023-03-15T00:17:43;96109.53;;;5.21;81.47
73024;BME280;61199;47.526;8.538;2023-03-15T00:20:11;96121.84;;;5.07;79.76
73024;BME280;61199;47.526;8.538;2023-03-15T00:22:41;96132.75;;;4.99;79.03
73024;BME280;61199;47.526;8.538;2023-03-15T00:25:07;96137.53;;;4.93;80.14
73024;BME280;61199;47.526;8.538;2023-03-15T00:27:34;96144.34;;;5.06;78.93
73024;BME280;61199;47.526;8.538;2023-03-15T00:30:00;96154.56;;;5.20;78.14
73024;BME280;61199;47.526;8.538;2023-03-15T00:32:27;96139.94;;;4.83;79.17
73024;BME280;61199;47.526;8.538;2023-03-15T00:34:53;96147.88;;;5.05;78.42
73024;BME280;61199;47.526;8.538;2023-03-15T00:37:20;96143.94;;;5.12;77.31
73024;BME280;61199;47.526;8.538;2023-03-15T00:39:47;96157.31;;;5.06;77.91
73024;BME280;61199;47.526;8.538;2023-03-15T00:42:14;96161.16;;;5.13;77.25
73024;BME280;61199;47.526;8.538;2023-03-15T00:44:43;96165.69;;;5.22;77.75
73024;BME280;61199;47.526;8.538;2023-03-15T00:47:11;96182.03;;;4.99;77.52
73024;BME280;61199;47.526;8.538;2023-03-15T00:49:40;96191.84;;;5.19;77.03
73024;BME280;61199;47.526;8.538;2023-03-15T00:52:06;96195.22;;;5.09;76.49
73024;BME280;61199;47.526;8.538;2023-03-15T00:54:33;96196.25;;;5.06;76.95
73024;BME280;61199;47.526;8.538;2023-03-15T00:57:00;96203.19;;;5.18;76.45
73024;BME280;61199;47.526;8.538;2023-03-15T00:59:30;96213.63;;;4.93;76.59
73024;BME280;61199;47.526;8.538;2023-03-15T01:02:01;96233.22;;;4.72;77.59
73024;BME280;61199;47.526;8.538;2023-03-15T01:04:28;96230.13;;;4.80;78.00
73024;BME280;61199;47.526;8.538;2023-03-15T01:06:54;96237.59;;;4.84;77.92
73024;BME280;61199;47.526;8.538;2023-03-15T01:09:21;96236.44;;;4.63;77.76
73024;BME280;61199;47.526;8.538;2023-03-15T01:11:47;96238.50;;;4.83;76.93
73024;BME280;61199;47.526;8.538;2023-03-15T01:14:13;96261.28;;;4.80;77.17
73024;BME280;61199;47.526;8.538;2023-03-15T01:16:40;96270.81;;;4.92;77.56
73024;BME280;61199;47.526;8.538;2023-03-15T01:19:06;96276.53;;;4.84;77.14
73024;BME280;61199;47.526;8.538;2023-03-15T01:21:33;96268.91;;;4.69;77.17
73024;BME280;61199;47.526;8.538;2023-03-15T01:23:59;96271.00;;;5.01;76.36
73024;BME280;61199;47.526;8.538;2023-03-15T01:26:25;96282.22;;;5.14;76.42
73024;BME280;61199;47.526;8.538;2023-03-15T01:28:52;96284.31;;;5.57;75.05
73024;BME280;61199;47.526;8.538;2023-03-15T01:31:24;96282.91;;;5.89;74.08
73024;BME280;61199;47.526;8.538;2023-03-15T01:33:51;96274.88;;;6.16;72.54
73024;BME280;61199;47.526;8.538;2023-03-15T01:36:17;96272.66;;;5.99;70.86
73024;BME280;61199;47.526;8.538;2023-03-15T01:38:44;96282.72;;;5.80;71.95
73024;BME280;61199;47.526;8.538;2023-03-15T01:41:12;96291.84;;;6.09;71.37
73024;BME280;61199;47.526;8.538;2023-03-15T01:43:39;96294.22;;;6.35;71.01
73024;BME280;61199;47.526;8.538;2023-03-15T01:46:18;96308.34;;;6.55;70.91
73024;BME280;61199;47.526;8.538;2023-03-15T01:51:54;96304.28;;;6.74;70.40
73024;BME280;61199;47.526;8.538;2023-03-15T01:54:26;96304.19;;;6.76;69.68
73024;BME280;61199;47.526;8.538;2023-03-15T01:57:01;96315.50;;;6.75;69.54
73024;BME280;61199;47.526;8.538;2023-03-15T01:59:33;96313.28;;;6.81;69.78
73024;BME280;61199;47.526;8.538;2023-03-15T02:02:03;96323.44;;;6.73;68.41
73024;BME280;61199;47.526;8.538;2023-03-15T02:04:37;96323.09;;;6.78;67.41
73024;BME280;61199;47.526;8.538;2023-03-15T02:07:07;96327.38;;;6.79;67.89
73024;BME280;61199;47.526;8.538;2023-03-15T02:09:41;96323.13;;;6.89;67.26
73024;BME280;61199;47.526;8.538;2023-03-15T02:12:09;96333.53;;;6.89;67.64
73024;BME280;61199;47.526;8.538;2023-03-15T02:14:36;96322.53;;;6.85;67.46
73024;BME280;61199;47.526;8.538;2023-03-15T02:17:03;96325.97;;;6.86;67.65
73024;BME280;61199;47.526;8.538;2023-03-15T02:19:39;96325.22;;;6.73;67.59
73024;BME280;61199;47.526;8.538;2023-03-15T02:22:19;96329.94;;;6.68;66.07
73024;BME280;61199;47.526;8.538;2023-03-15T02:25:14;96336.63;;;6.59;65.73
73024;BME280;61199;47.526;8.538;2023-03-15T02:27:42;96339.16;;;6.72;66.72
73024;BME280;61199;47.526;8.538;2023-03-15T02:30:10;96336.56;;;6.72;66.91
73024;BME280;61199;47.526;8.538;2023-03-15T02:32:37;96348.63;;;6.73;66.97
73024;BME280;61199;47.526;8.538;2023-03-15T02:35:04;96349.69;;;6.70;67.28
73024;BME280;61199;47.526;8.538;2023-03-15T02:37:30;96348.53;;;6.74;67.31
73024;BME280;61199;47.526;8.538;2023-03-15T02:39:57;96355.34;;;6.64;67.67
73024;BME280;61199;47.526;8.538;2023-03-15T02:42:24;96353.28;;;6.57;66.45
73024;BME280;61199;47.526;8.538;2023-03-15T02:44:52;96366.38;;;6.44;66.53
73024;BME280;61199;47.526;8.538;2023-03-15T02:47:27;96352.06;;;6.39;66.35
73024;BME280;61199;47.526;8.538;2023-03-15T02:49:56;96366.72;;;6.40;66.40
73024;BME280;61199;47.526;8.538;2023-03-15T02:52:23;96370.84;;;6.42;66.02
73024;BME280;61199;47.526;8.538;2023-03-15T02:54:51;96366.09;;;6.36;66.19
73024;BME280;61199;47.526;8.538;2023-03-15T02:57:19;96372.06;;;6.26;66.70
73024;BME280;61199;47.526;8.538;2023-03-15T02:59:45;96377.13;;;6.16;67.25
73024;BME280;61199;47.526;8.538;2023-03-15T03:02:13;96375.31;;;6.17;66.59
73024;BME280;61199;47.526;8.538;2023-03-15T03:04:40;96382.41;;;6.15;67.36
73024;BME280;61199;47.526;8.538;2023-03-15T03:07:07;96383.03;;;6.18;67.86
73024;BME280;61199;47.526;8.538;2023-03-15T03:09:33;96387.28;;;6.19;67.86
73024;BME280;61199;47.526;8.538;2023-03-15T03:12:00;96388.56;;;6.14;67.73
73024;BME280;61199;47.526;8.538;2023-03-15T03:14:26;96396.97;;;6.17;67.81
73024;BME280;61199;47.526;8.538;2023-03-15T03:16:52;96398.72;;;6.17;67.06
73024;BME280;61199;47.526;8.538;2023-03-15T03:19:19;96408.31;;;6.16;67.48
73024;BME280;61199;47.526;8.538;2023-03-15T03:21:51;96417.97;;;6.14;67.24
73024;BME280;61199;47.526;8.538;2023-03-15T03:24:18;96425.25;;;6.22;67.37
73024;BME280;61199;47.526;8.538;2023-03-15T03:26:45;96426.59;;;6.15;67.50
73024;BME280;61199;47.526;8.538;2023-03-15T03:29:13;96424.44;;;6.09;67.28
73024;BME280;61199;47.526;8.538;2023-03-15T03:31:43;96419.69;;;6.03;66.69
73024;BME280;61199;47.526;8.538;2023-03-15T03:34:10;96426.34;;;5.94;66.72
73024;BME280;61199;47.526;8.538;2023-03-15T03:36:40;96427.59;;;5.89;67.09
73024;BME280;61199;47.526;8.538;2023-03-15T03:39:08;96431.84;;;5.90;67.42
73024;BME280;61199;47.526;8.538;2023-03-15T03:41:35;96433.09;;;5.84;67.54
73024;BME280;61199;47.526;8.538;2023-03-15T03:44:01;96437.75;;;5.92;67.48
73024;BME280;61199;47.526;8.538;2023-03-15T03:46:28;96437.69;;;5.81;67.73
73024;BME280;61199;47.526;8.538;2023-03-15T03:48:55;96446.78;;;5.74;68.12
73024;BME280;61199;47.526;8.538;2023-03-15T03:51:24;96445.47;;;5.81;67.98
73024;BME280;61199;47.526;8.538;2023-03-15T03:53:50;96450.69;;;5.81;67.80
73024;BME280;61199;47.526;8.538;2023-03-15T03:56:16;96455.34;;;5.76;68.09
73024;BME280;61199;47.526;8.538;2023-03-15T03:58:43;96461.66;;;5.72;68.61
73024;BME280;61199;47.526;8.538;2023-03-15T04:01:09;96462.09;;;5.66;68.59
73024;BME280;61199;47.526;8.538;2023-03-15T04:03:36;96465.81;;;5.62;68.75
73024;BME280;61199;47.526;8.538;2023-03-15T04:06:03;96466.22;;;5.56;68.94
73024;BME280;61199;47.526;8.538;2023-03-15T04:08:30;96473.53;;;5.63;68.54
73024;BME280;61199;47.526;8.538;2023-03-15T04:10:57;96473.09;;;5.69;68.63
73024;BME280;61199;47.526;8.538;2023-03-15T04:13:24;96480.38;;;5.64;68.77
73024;BME280;61199;47.526;8.538;2023-03-15T04:15:51;96481.09;;;5.54;69.38
73024;BME280;61199;47.526;8.538;2023-03-15T04:18:17;96477.88;;;5.51;69.05
73024;BME280;61199;47.526;8.538;2023-03-15T04:20:46;96480.34;;;5.40;69.15
73024;BME280;61199;47.526;8.538;2023-03-15T04:23:14;96486.19;;;5.43;68.80
73024;BME280;61199;47.526;8.538;2023-03-15T04:25:41;96492.41;;;5.41;69.39
73024;BME280;61199;47.526;8.538;2023-03-15T04:28:08;96486.72;;;5.48;68.83
73024;BME280;61199;47.526;8.538;2023-03-15T04:30:36;96490.34;;;5.46;68.74
73024;BME280;61199;47.526;8.538;2023-03-15T04:33:03;96500.44;;;5.50;69.33
73024;BME280;61199;47.526;8.538;2023-03-15T04:35:32;96504.69;;;5.51;68.77
73024;BME280;61199;47.526;8.538;2023-03-15T04:37:59;96509.63;;;5.42;69.00
73024;BME280;61199;47.526;8.538;2023-03-15T04:40:26;96517.13;;;5.46;69.29
73024;BME280;61199;47.526;8.538;2023-03-15T04:42:53;96509.44;;;5.32;69.76
73024;BME280;61199;47.526;8.538;2023-03-15T04:45:24;96517.94;;;5.34;69.30
73024;BME280;61199;47.526;8.538;2023-03-15T04:47:51;96514.13;;;5.40;69.05
73024;BME280;61199;47.526;8.538;2023-03-15T04:50:19;96510.16;;;5.34;68.92
73024;BME280;61199;47.526;8.538;2023-03-15T04:52:46;96525.00;;;5.32;69.19
73024;BME280;61199;47.526;8.538;2023-03-15T04:55:13;96519.28;;;5.27;69.36
73024;BME280;61199;47.526;8.538;2023-03-15T04:57:40;96523.75;;;5.25;69.01
73024;BME280;61199;47.526;8.538;2023-03-15T05:00:07;96525.09;;;5.31;68.25
73024;BME280;61199;47.526;8.538;2023-03-15T05:02:38;96531.03;;;5.33;68.05
73024;BME280;61199;47.526;8.538;2023-03-15T05:05:07;96528.34;;;5.34;68.36
73024;BME280;61199;47.526;8.538;2023-03-15T05:07:34;96534.16;;;5.38;68.94
73024;BME280;61199;47.526;8.538;2023-03-15T05:10:01;96536.31;;;5.19;69.24
73024;BME280;61199;47.526;8.538;2023-03-15T05:12:28;96537.88;;;5.21;68.96
73024;BME280;61199;47.526;8.538;2023-03-15T05:14:55;96545.31;;;5.13;69.20
73024;BME280;61199;47.526;8.538;2023-03-15T05:17:21;96537.31;;;5.16;69.18
73024;BME280;61199;47.526;8.538;2023-03-15T05:19:48;96531.41;;;5.14;69.37
73024;BME280;61199;47.526;8.538;2023-03-15T05:22:14;96528.25;;;5.09;69.75
73024;BME280;61199;47.526;8.538;2023-03-15T05:24:41;96534.94;;;5.13;69.40
73024;BME280;61199;47.526;8.538;2023-03-15T05:27:09;96538.63;;;5.09;69.79
73024;BME280;61199;47.526;8.538;2023-03-15T05:29:37;96550.97;;;4.93;69.39
73024;BME280;61199;47.526;8.538;2023-03-15T05:32:03;96549.97;;;4.82;69.69
73024;BME280;61199;47.526;8.538;2023-03-15T05:34:30;96548.75;;;4.87;69.67
73024;BME280;61199;47.526;8.538;2023-03-15T05:36:58;96555.94;;;4.96;69.52
73024;BME280;61199;47.526;8.538;2023-03-15T05:39:24;96561.91;;;4.84;69.75
73024;BME280;61199;47.526;8.538;2023-03-15T05:41:51;96572.91;;;4.88;69.98
73024;BME280;61199;47.526;8.538;2023-03-15T05:44:17;96575.84;;;4.69;71.11
73024;BME280;61199;47.526;8.538;2023-03-15T05:46:44;96573.78;;;4.74;70.55
73024;BME280;61199;47.526;8.538;2023-03-15T05:49:10;96575.19;;;4.80;70.98
73024;BME280;61199;47.526;8.538;2023-03-15T05:51:36;96586.28;;;4.82;70.80
73024;BME280;61199;47.526;8.538;2023-03-15T05:54:03;96585.88;;;4.88;70.87
73024;BME280;61199;47.526;8.538;2023-03-15T05:56:30;96584.16;;;4.74;71.03
73024;BME280;61199;47.526;8.538;2023-03-15T05:58:56;96583.97;;;4.77;71.22
73024;BME280;61199;47.526;8.538;2023-03-15T06:01:22;96592.50;;;4.79;71.18
73024;BME280;61199;47.526;8.538;2023-03-15T06:03:49;96579.31;;;4.82;71.24
73024;BME280;61199;47.526;8.538;2023-03-15T06:06:15;96588.19;;;4.92;71.19
73024;BME280;61199;47.526;8.538;2023-03-15T06:08:42;96588.03;;;4.95;71.27
73024;BME280;61199;47.526;8.538;2023-03-15T06:11:08;96584.19;;;5.01;71.09
73024;BME280;61199;47.526;8.538;2023-03-15T06:13:34;96593.44;;;5.05;70.71
73024;BME280;61199;47.526;8.538;2023-03-15T06:16:01;96596.78;;;5.07;70.74
73024;BME280;61199;47.526;8.538;2023-03-15T06:18:27;96590.75;;;5.06;70.22
73024;BME280;61199;47.526;8.538;2023-03-15T06:20:53;96592.81;;;5.01;70.33
73024;BME280;61199;47.526;8.538;2023-03-15T06:23:20;96594.50;;;5.02;69.73
73024;BME280;61199;47.526;8.538;2023-03-15T06:25:46;96598.34;;;5.09;68.82
73024;BME280;61199;47.526;8.538;2023-03-15T06:28:13;96597.53;;;5.09;69.09
73024;BME280;61199;47.526;8.538;2023-03-15T06:30:39;96608.34;;;5.15;68.67
73024;BME280;61199;47.526;8.538;2023-03-15T06:33:06;96602.00;;;5.07;68.80
73024;BME280;61199;47.526;8.538;2023-03-15T06:35:33;96604.66;;;5.05;68.62
73024;BME280;61199;47.526;8.538;2023-03-15T06:37:59;96605.41;;;5.07;68.42
73024;BME280;61199;47.526;8.538;2023-03-15T06:40:26;96613.47;;;5.03;68.92
73024;BME280;61199;47.526;8.538;2023-03-15T06:42:52;96614.19;;;4.64;70.88
73024;BME280;61199;47.526;8.538;2023-03-15T06:45:19;96611.78;;;4.61;70.82
73024;BME280;61199;47.526;8.538;2023-03-15T06:47:46;96623.34;;;4.70;70.52
73024;BME280;61199;47.526;8.538;2023-03-15T06:50:12;96620.53;;;4.87;69.99
73024;BME280;61199;47.526;8.538;2023-03-15T06:52:38;96622.47;;;4.97;69.00
73024;BME280;61199;47.526;8.538;2023-03-15T06:55:05;96626.78;;;4.84;69.89
73024;BME280;61199;47.526;8.538;2023-03-15T06:57:31;96627.97;;;4.79;69.95
73024;BME280;61199;47.526;8.538;2023-03-15T06:59:58;96629.19;;;4.87;69.79
73024;BME280;61199;47.526;8.538;2023-03-15T07:02:24;96624.88;;;5.00;69.23
73024;BME280;61199;47.526;8.538;2023-03-15T07:04:51;96630.25;;;5.11;69.43
73024;BME280;61199;47.526;8.538;2023-03-15T07:07:17;96623.63;;;5.20;69.13
73024;BME280;61199;47.526;8.538;2023-03-15T07:09:43;96625.94;;;5.24;69.08
73024;BME280;61199;47.526;8.538;2023-03-15T07:12:10;96627.59;;;5.25;69.61
73024;BME280;61199;47.526;8.538;2023-03-15T07:14:36;96634.94;;;5.45;69.14
73024;BME280;61199;47.526;8.538;2023-03-15T07:17:03;96637.25;;;5.50;69.27
73024;BME280;61199;47.526;8.538;2023-03-15T07:19:29;96633.91;;;5.48;68.80
73024;BME280;61199;47.526;8.538;2023-03-15T07:21:56;96643.06;;;5.53;68.19
73024;BME280;61199;47.526;8.538;2023-03-15T07:24:22;96636.75;;;5.31;68.47
73024;BME280;61199;47.526;8.538;2023-03-15T07:26:48;96640.63;;;5.11;69.14
73024;BME280;61199;47.526;8.538;2023-03-15T07:29:19;96639.06;;;5.35;68.59
73024;BME280;61199;47.526;8.538;2023-03-15T07:31:46;96647.00;;;5.46;68.40
73024;BME280;61199;47.526;8.538;2023-03-15T07:34:12;96649.94;;;5.54;68.44
73024;BME280;61199;47.526;8.538;2023-03-15T07:36:38;96652.50;;;5.68;67.87
73024;BME280;61199;47.526;8.538;2023-03-15T07:39:05;96648.06;;;5.56;66.85
73024;BME280;61199;47.526;8.538;2023-03-15T07:41:31;96656.50;;;5.59;66.45
73024;BME280;61199;47.526;8.538;2023-03-15T07:43:58;96656.63;;;5.58;66.56
73024;BME280;61199;47.526;8.538;2023-03-15T07:46:24;96661.94;;;5.69;66.52
73024;BME280;61199;47.526;8.538;2023-03-15T07:48:51;96664.03;;;5.76;66.55
73024;BME280;61199;47.526;8.538;2023-03-15T07:51:17;96666.81;;;5.61;65.82
73024;BME280;61199;47.526;8.538;2023-03-15T07:53:43;96663.22;;;5.23;67.54
73024;BME280;61199;47.526;8.538;2023-03-15T07:56:10;96662.88;;;5.15;67.07
73024;BME280;61199;47.526;8.538;2023-03-15T07:58:36;96656.66;;;5.18;67.60
73024;BME280;61199;47.526;8.538;2023-03-15T08:01:03;96655.00;;;5.03;67.01
73024;BME280;61199;47.526;8.538;2023-03-15T08:03:29;96662.13;;;5.13;67.16
73024;BME280;61199;47.526;8.538;2023-03-15T08:05:56;96653.63;;;5.11;66.87
73024;BME280;61199;47.526;8.538;2023-03-15T08:08:23;96655.66;;;5.06;68.38
73024;BME280;61199;47.526;8.538;2023-03-15T08:10:49;96661.44;;;5.24;68.46
73024;BME280;61199;47.526;8.538;2023-03-15T08:13:15;96660.97;;;5.57;67.61
73024;BME280;61199;47.526;8.538;2023-03-15T08:15:44;96663.91;;;5.65;67.25
73024;BME280;61199;47.526;8.538;2023-03-15T08:18:12;96658.41;;;5.70;66.50
73024;BME280;61199;47.526;8.538;2023-03-15T08:20:39;96661.63;;;5.21;67.48
73024;BME280;61199;47.526;8.538;2023-03-15T08:23:05;96665.09;;;5.07;66.73
73024;BME280;61199;47.526;8.538;2023-03-15T08:25:31;96672.06;;;4.93;68.08
73024;BME280;61199;47.526;8.538;2023-03-15T08:27:58;96659.69;;;5.24;67.90
73024;BME280;61199;47.526;8.538;2023-03-15T08:30:24;96661.50;;;5.36;67.43
73024;BME280;61199;47.526;8.538;2023-03-15T08:32:51;96665.13;;;5.60;66.27
73024;BME280;61199;47.526;8.538;2023-03-15T08:35:20;96667.19;;;5.29;67.22
73024;BME280;61199;47.526;8.538;2023-03-15T08:37:46;96671.88;;;5.10;67.04
73024;BME280;61199;47.526;8.538;2023-03-15T08:40:15;96666.22;;;5.03;67.80
73024;BME280;61199;47.526;8.538;2023-03-15T08:42:43;96666.22;;;5.03;66.64
73024;BME280;61199;47.526;8.538;2023-03-15T08:45:09;96657.25;;;4.95;66.99
73024;BME280;61199;47.526;8.538;2023-03-15T08:47:36;96659.69;;;5.10;66.95
73024;BME280;61199;47.526;8.538;2023-03-15T08:50:04;96662.81;;;5.29;66.81
73024;BME280;61199;47.526;8.538;2023-03-15T08:52:31;96664.66;;;5.41;66.52
73024;BME280;61199;47.526;8.538;2023-03-15T08:54:58;96666.06;;;5.59;65.92
73024;BME280;61199;47.526;8.538;2023-03-15T08:57:24;96663.72;;;5.42;65.96
73024;BME280;61199;47.526;8.538;2023-03-15T08:59:51;96658.97;;;5.49;64.37
73024;BME280;61199;47.526;8.538;2023-03-15T09:02:18;96659.47;;;5.41;65.78
73024;BME280;61199;47.526;8.538;2023-03-15T09:04:44;96661.63;;;5.47;65.10
73024;BME280;61199;47.526;8.538;2023-03-15T09:07:11;96662.66;;;5.71;64.93
73024;BME280;61199;47.526;8.538;2023-03-15T09:09:37;96659.25;;;5.97;63.95
73024;BME280;61199;47.526;8.538;2023-03-15T09:12:04;96662.44;;;5.88;62.80
73024;BME280;61199;47.526;8.538;2023-03-15T09:14:30;96656.91;;;5.80;63.45
73024;BME280;61199;47.526;8.538;2023-03-15T09:16:57;96671.44;;;5.56;62.36
73024;BME280;61199;47.526;8.538;2023-03-15T09:19:23;96668.69;;;5.45;63.41
73024;BME280;61199;47.526;8.538;2023-03-15T09:21:49;96669.69;;;5.57;62.46
73024;BME280;61199;47.526;8.538;2023-03-15T09:24:16;96666.16;;;5.57;62.58
73024;BME280;61199;47.526;8.538;2023-03-15T09:26:43;96668.06;;;5.68;59.93
73024;BME280;61199;47.526;8.538;2023-03-15T09:29:09;96663.03;;;5.79;59.90
73024;BME280;61199;47.526;8.538;2023-03-15T09:31:36;96672.69;;;5.77;58.88
73024;BME280;61199;47.526;8.538;2023-03-15T09:34:02;96672.50;;;5.80;59.70
73024;BME280;61199;47.526;8.538;2023-03-15T09:36:28;96682.72;;;5.95;57.64
73024;BME280;61199;47.526;8.538;2023-03-15T09:38:55;96686.44;;;5.79;55.75
73024;BME280;61199;47.526;8.538;2023-03-15T09:41:36;96676.25;;;5.88;56.20
73024;BME280;61199;47.526;8.538;2023-03-15T09:44:38;96673.06;;;5.85;53.84
73024;BME280;61199;47.526;8.538;2023-03-15T09:47:19;96669.59;;;5.84;53.72
73024;BME280;61199;47.526;8.538;2023-03-15T09:50:03;96676.28;;;6.01;52.83
73024;BME280;61199;47.526;8.538;2023-03-15T09:52:39;96676.34;;;6.26;52.74
73024;BME280;61199;47.526;8.538;2023-03-15T09:55:22;96673.84;;;6.49;51.83
73024;BME280;61199;47.526;8.538;2023-03-15T09:57:55;96675.34;;;6.53;51.99
73024;BME280;61199;47.526;8.538;2023-03-15T10:00:37;96683.00;;;6.80;51.68
73024;BME280;61199;47.526;8.538;2023-03-15T10:03:04;96691.25;;;6.49;50.02
73024;BME280;61199;47.526;8.538;2023-03-15T10:05:40;96687.16;;;6.45;50.74
73024;BME280;61199;47.526;8.538;2023-03-15T10:08:09;96681.88;;;6.71;51.61
73024;BME280;61199;47.526;8.538;2023-03-15T10:10:39;96682.59;;;6.86;50.57
73024;BME280;61199;47.526;8.538;2023-03-15T10:16:01;96677.06;;;6.90;48.67
73024;BME280;61199;47.526;8.538;2023-03-15T10:18:58;96680.16;;;7.08;47.61
73024;BME280;61199;47.526;8.538;2023-03-15T10:21:45;96686.53;;;7.04;45.94
73024;BME280;61199;47.526;8.538;2023-03-15T10:27:13;96676.31;;;7.01;46.46
73024;BME280;61199;47.526;8.538;2023-03-15T10:29:40;96675.97;;;7.18;46.58
73024;BME280;61199;47.526;8.538;2023-03-15T10:32:17;96674.59;;;7.25;46.26
73024;BME280;61199;47.526;8.538;2023-03-15T10:34:50;96678.97;;;7.24;46.48
73024;BME280;61199;47.526;8.538;2023-03-15T10:37:18;96665.91;;;7.01;44.73
73024;BME280;61199;47.526;8.538;2023-03-15T10:39:57;96664.13;;;7.01;45.95
73024;BME280;61199;47.526;8.538;2023-03-15T10:42:28;96664.84;;;7.16;45.81
73024;BME280;61199;47.526;8.538;2023-03-15T10:44:55;96654.16;;;7.31;45.37
73024;BME280;61199;47.526;8.538;2023-03-15T10:47:23;96648.56;;;7.25;46.34
73024;BME280;61199;47.526;8.538;2023-03-15T10:49:57;96650.78;;;7.18;45.26
73024;BME280;61199;47.526;8.538;2023-03-15T10:52:37;96654.78;;;7.35;45.32
73024;BME280;61199;47.526;8.538;2023-03-15T10:55:16;96648.72;;;7.34;44.33
73024;BME280;61199;47.526;8.538;2023-03-15T10:57:53;96658.13;;;7.24;43.20
73024;BME280;61199;47.526;8.538;2023-03-15T11:00:26;96665.06;;;7.13;43.04
73024;BME280;61199;47.526;8.538;2023-03-15T11:03:06;96668.34;;;7.27;44.22
73024;BME280;61199;47.526;8.538;2023-03-15T11:05:46;96642.91;;;7.31;42.48
73024;BME280;61199;47.526;8.538;2023-03-15T11:08:17;96656.03;;;7.29;43.90
73024;BME280;61199;47.526;8.538;2023-03-15T11:10:44;96642.50;;;7.48;42.47
73024;BME280;61199;47.526;8.538;2023-03-15T11:13:17;96644.88;;;7.63;43.20
73024;BME280;61199;47.526;8.538;2023-03-15T11:21:14;96639.31;;;8.26;42.96
73024;BME280;61199;47.526;8.538;2023-03-15T11:23:45;96633.88;;;8.05;41.88
73024;BME280;61199;47.526;8.538;2023-03-15T11:26:17;96632.19;;;7.93;42.63
73024;BME280;61199;47.526;8.538;2023-03-15T11:29:04;96633.69;;;7.85;42.61
73024;BME280;61199;47.526;8.538;2023-03-15T11:31:34;96632.56;;;7.65;43.47
73024;BME280;61199;47.526;8.538;2023-03-15T11:34:24;96621.84;;;7.92;44.01
73024;BME280;61199;47.526;8.538;2023-03-15T11:36:56;96614.63;;;8.19;42.50
73024;BME280;61199;47.526;8.538;2023-03-15T11:39:59;96630.69;;;8.36;41.72
73024;BME280;61199;47.526;8.538;2023-03-15T11:42:45;96633.31;;;8.13;41.32
73024;BME280;61199;47.526;8.538;2023-03-15T11:47:55;96617.34;;;7.94;41.74
73024;BME280;61199;47.526;8.538;2023-03-15T11:50:23;96611.56;;;8.25;42.52
73024;BME280;61199;47.526;8.538;2023-03-15T11:52:50;96598.28;;;8.39;42.32
73024;BME280;61199;47.526;8.538;2023-03-15T11:55:26;96590.47;;;8.61;42.01
73024;BME280;61199;47.526;8.538;2023-03-15T11:57:54;96595.56;;;8.62;41.42
73024;BME280;61199;47.526;8.538;2023-03-15T12:03:27;96606.59;;;8.44;44.73
73024;BME280;61199;47.526;8.538;2023-03-15T12:08:53;96597.06;;;9.19;43.16
73024;BME280;61199;47.526;8.538;2023-03-15T12:16:22;96587.06;;;10.19;40.90
73024;BME280;61199;47.526;8.538;2023-03-15T12:18:52;96605.09;;;9.49;41.65
73024;BME280;61199;47.526;8.538;2023-03-15T12:21:30;96593.56;;;8.76;41.98
73024;BME280;61199;47.526;8.538;2023-03-15T12:24:06;96587.03;;;9.35;41.35
73024;BME280;61199;47.526;8.538;2023-03-15T12:26:39;96587.72;;;9.48;41.33
73024;BME280;61199;47.526;8.538;2023-03-15T12:29:24;96593.56;;;9.72;40.08
73024;BME280;61199;47.526;8.538;2023-03-15T12:34:28;96574.28;;;10.25;39.27
73024;BME280;61199;47.526;8.538;2023-03-15T12:37:00;96590.31;;;9.59;38.87
73024;BME280;61199;47.526;8.538;2023-03-15T12:42:05;96572.38;;;10.27;41.28
73024;BME280;61199;47.526;8.538;2023-03-15T12:46:59;96586.94;;;11.10;41.11
73024;BME280;61199;47.526;8.538;2023-03-15T12:49:29;96585.63;;;10.95;40.54
73024;BME280;61199;47.526;8.538;2023-03-15T12:54:46;96576.28;;;10.63;40.34
73024;BME280;61199;47.526;8.538;2023-03-15T12:57:24;96579.03;;;10.91;40.49
73024;BME280;61199;47.526;8.538;2023-03-15T13:00:06;96579.75;;;11.03;40.21
73024;BME280;61199;47.526;8.538;2023-03-15T13:02:53;96569.38;;;11.50;39.90
73024;BME280;61199;47.526;8.538;2023-03-15T13:08:29;96582.50;;;11.50;39.01
73024;BME280;61199;47.526;8.538;2023-03-15T13:11:32;96566.50;;;11.91;38.34
73024;BME280;61199;47.526;8.538;2023-03-15T13:14:28;96569.63;;;12.32;37.03
73024;BME280;61199;47.526;8.538;2023-03-15T13:17:05;96570.56;;;12.41;36.12
73024;BME280;61199;47.526;8.538;2023-03-15T13:19:45;96561.38;;;12.64;36.18
73024;BME280;61199;47.526;8.538;2023-03-15T13:22:23;96566.66;;;11.03;37.35
73024;BME280;61199;47.526;8.538;2023-03-15T13:25:19;96575.75;;;11.08;37.05
73024;BME280;61199;47.526;8.538;2023-03-15T13:30:43;96565.06;;;10.51;37.35
73024;BME280;61199;47.526;8.538;2023-03-15T13:33:41;96569.59;;;10.79;38.63
73024;BME280;61199;47.526;8.538;2023-03-15T13:36:13;96560.44;;;11.13;38.29
73024;BME280;61199;47.526;8.538;2023-03-15T13:41:25;96560.16;;;10.97;37.14
73024;BME280;61199;47.526;8.538;2023-03-15T13:43:54;96555.94;;;10.76;36.94
73024;BME280;61199;47.526;8.538;2023-03-15T13:46:24;96560.66;;;10.82;37.63
73024;BME280;61199;47.526;8.538;2023-03-15T13:48:53;96562.63;;;10.59;37.75
73024;BME280;61199;47.526;8.538;2023-03-15T13:51:31;96564.97;;;10.32;37.89
73024;BME280;61199;47.526;8.538;2023-03-15T13:54:04;96554.78;;;10.09;37.26
73024;BME280;61199;47.526;8.538;2023-03-15T13:56:37;96551.53;;;10.46;37.65
73024;BME280;61199;47.526;8.538;2023-03-15T13:59:15;96562.34;;;10.32;37.92
73024;BME280;61199;47.526;8.538;2023-03-15T14:01:42;96563.72;;;10.06;38.45
73024;BME280;61199;47.526;8.538;2023-03-15T14:04:14;96552.63;;;9.82;38.23
73024;BME280;61199;47.526;8.538;2023-03-15T14:06:42;96557.94;;;10.12;38.98
73024;BME280;61199;47.526;8.538;2023-03-15T14:09:20;96563.75;;;10.66;39.25